createdAt,value
2022-11-15T00:01:20.645Z,42.11
2022-11-15T00:03:50.756Z,42.10
2022-11-15T00:06:19.352Z,41.98
2022-11-15T00:08:47.843Z,42.04
2022-11-15T00:11:17.727Z,42.06
2022-11-15T00:13:46.180Z,41.96
2022-11-15T00:16:14.618Z,42.05
2022-11-15T00:18:47.781Z,41.80
2022-11-15T00:21:19.362Z,42.06
2022-11-15T00:23:47.755Z,41.98
2022-11-15T00:26:17.650Z,41.93
2022-11-15T00:28:46.177Z,41.76
2022-11-15T00:31:15.830Z,41.94
2022-11-15T00:33:46.386Z,41.78
2022-11-15T00:36:14.839Z,41.71
2022-11-15T00:38:43.302Z,41.73
2022-11-15T00:41:13.967Z,41.71
2022-11-15T00:43:44.672Z,41.73
2022-11-15T00:46:13.351Z,41.77
2022-11-15T00:48:41.784Z,41.77
2022-11-15T00:51:10.489Z,41.62
2022-11-15T00:53:38.889Z,41.56
2022-11-15T00:56:07.857Z,41.76
2022-11-15T00:58:36.397Z,41.63
2022-11-15T01:01:10.797Z,41.51
2022-11-15T01:03:40.021Z,41.52
2022-11-15T01:06:09.095Z,41.58
2022-11-15T01:08:37.972Z,41.41
2022-11-15T01:11:08.540Z,41.41
2022-11-15T01:13:37.348Z,41.53
2022-11-15T01:16:11.115Z,41.48
2022-11-15T01:18:39.631Z,41.48
2022-11-15T01:21:10.100Z,41.51
2022-11-15T01:23:38.910Z,41.29
2022-11-15T01:26:09.262Z,41.44
2022-11-15T01:28:39.477Z,41.51
2022-11-15T01:31:13.582Z,41.43
2022-11-15T01:33:42.054Z,41.56
2022-11-15T01:36:13.312Z,41.27
2022-11-15T01:38:41.803Z,41.33
2022-11-15T01:41:18.378Z,41.48
2022-11-15T01:43:48.288Z,41.10
2022-11-15T01:46:29.513Z,41.24
2022-11-15T01:48:59.985Z,41.37
2022-11-15T01:51:29.082Z,41.42
2022-11-15T01:53:59.000Z,41.35
2022-11-15T01:56:30.111Z,41.38
2022-11-15T01:58:59.452Z,40.98
2022-11-15T02:01:29.517Z,41.15
2022-11-15T02:04:01.004Z,41.15
2022-11-15T02:06:29.485Z,41.01
2022-11-15T02:08:58.174Z,41.19
2022-11-15T02:11:26.683Z,41.00
2022-11-15T02:13:55.249Z,41.11
2022-11-15T02:16:30.373Z,40.95
2022-11-15T02:19:04.053Z,41.11
2022-11-15T02:21:35.739Z,41.04
2022-11-15T02:24:48.754Z,41.61
2022-11-15T02:27:48.086Z,40.92
2022-11-15T02:30:30.055Z,41.15
2022-11-15T02:33:01.056Z,40.87
2022-11-15T02:35:36.655Z,40.75
2022-11-15T02:38:09.683Z,40.86
2022-11-15T02:40:43.179Z,40.83
2022-11-15T02:43:30.994Z,40.82
2022-11-15T02:46:04.560Z,40.91
2022-11-15T02:48:33.517Z,40.84
2022-11-15T02:51:02.361Z,41.01
2022-11-15T02:53:31.165Z,40.92
2022-11-15T02:55:59.913Z,40.76
2022-11-15T02:58:59.676Z,41.04
2022-11-15T03:01:40.812Z,41.01
2022-11-15T03:04:18.837Z,40.64
2022-11-15T03:06:50.971Z,40.86
2022-11-15T03:09:25.927Z,40.59
2022-11-15T03:11:58.609Z,40.82
2022-11-15T03:14:30.981Z,40.75
2022-11-15T03:17:04.395Z,40.60
2022-11-15T03:19:36.564Z,40.85
2022-11-15T03:22:06.861Z,40.83
2022-11-15T03:24:36.926Z,40.68
2022-11-15T03:27:05.626Z,40.81
2022-11-15T03:29:35.480Z,40.78
2022-11-15T03:32:07.669Z,40.63
2022-11-15T03:34:40.257Z,40.53
2022-11-15T03:37:08.708Z,40.84
2022-11-15T03:39:37.255Z,40.54
2022-11-15T03:42:13.460Z,40.53
2022-11-15T03:44:45.371Z,40.63
2022-11-15T03:47:18.663Z,40.58
2022-11-15T03:49:48.836Z,40.72
2022-11-15T03:52:19.714Z,40.67
2022-11-15T03:54:52.681Z,40.63
2022-11-15T03:57:21.102Z,40.64
2022-11-15T03:59:49.493Z,40.64
2022-11-15T04:02:19.320Z,40.72
2022-11-15T04:04:47.755Z,40.57
2022-11-15T04:07:16.295Z,40.45
2022-11-15T04:09:58.893Z,40.79
2022-11-15T04:12:32.633Z,40.65
2022-11-15T04:15:11.948Z,40.57
2022-11-15T04:17:43.561Z,40.38
2022-11-15T04:20:32.830Z,40.42
2022-11-15T04:23:19.693Z,40.46
2022-11-15T04:25:48.159Z,40.48
2022-11-15T04:28:16.706Z,40.35
2022-11-15T04:30:45.136Z,40.63
2022-11-15T04:33:15.274Z,40.68
2022-11-15T04:35:44.314Z,40.63
2022-11-15T04:38:13.845Z,40.54
2022-11-15T04:40:42.464Z,40.71
2022-11-15T04:43:11.013Z,40.74
2022-11-15T04:45:39.511Z,40.44
2022-11-15T04:48:08.222Z,40.67
2022-11-15T04:50:38.009Z,40.40
2022-11-15T04:53:07.139Z,40.53
2022-11-15T04:55:35.707Z,40.13
2022-11-15T04:58:04.472Z,40.53
2022-11-15T05:00:33.149Z,40.24
2022-11-15T05:03:19.124Z,40.46
2022-11-15T05:05:49.087Z,40.29
2022-11-15T05:08:17.580Z,40.18
2022-11-15T05:10:46.111Z,40.36
2022-11-15T05:13:14.612Z,40.23
2022-11-15T05:15:43.073Z,40.46
2022-11-15T05:18:11.649Z,40.33
2022-11-15T05:20:40.140Z,40.16
2022-11-15T05:23:10.132Z,40.36
2022-11-15T05:25:38.863Z,40.31
2022-11-15T05:28:07.439Z,40.37
2022-11-15T05:30:35.923Z,40.25
2022-11-15T05:33:04.735Z,40.20
2022-11-15T05:35:36.792Z,39.95
2022-11-15T05:38:05.482Z,40.31
2022-11-15T05:40:35.421Z,40.26
2022-11-15T05:43:04.046Z,40.19
2022-11-15T05:45:33.125Z,40.47
2022-11-15T05:48:01.679Z,40.05
2022-11-15T05:50:30.190Z,40.20
2022-11-15T05:53:02.297Z,40.07
2022-11-15T05:55:34.935Z,40.24
2022-11-15T05:58:03.513Z,40.15
2022-11-15T06:00:32.113Z,40.23
2022-11-15T06:03:00.627Z,40.20
2022-11-15T06:05:29.208Z,40.07
2022-11-15T06:08:00.813Z,40.14
2022-11-15T06:10:29.492Z,40.39
2022-11-15T06:13:02.340Z,40.15
2022-11-15T06:15:30.937Z,40.20
2022-11-15T06:17:59.615Z,40.75
2022-11-15T06:20:28.609Z,40.63
2022-11-15T06:23:00.136Z,40.31
2022-11-15T06:25:29.227Z,40.78
2022-11-15T06:27:59.090Z,40.92
2022-11-15T06:30:29.188Z,40.92
2022-11-15T06:33:04.471Z,41.04
2022-11-15T06:35:34.758Z,41.02
2022-11-15T06:38:05.489Z,40.71
2022-11-15T06:40:36.851Z,41.24
2022-11-15T06:43:05.549Z,41.28
2022-11-15T06:45:35.732Z,41.05
2022-11-15T06:48:04.659Z,41.23
2022-11-15T06:50:33.223Z,41.15
2022-11-15T06:53:04.372Z,40.91
2022-11-15T06:55:32.885Z,40.91
2022-11-15T06:58:01.718Z,40.79
2022-11-15T07:00:30.217Z,41.00
2022-11-15T07:03:01.856Z,41.19
2022-11-15T07:05:31.539Z,41.25
2022-11-15T07:08:00.521Z,41.51
2022-11-15T07:10:29.806Z,41.04
2022-11-15T07:12:58.495Z,41.73
2022-11-15T07:15:27.893Z,40.52
2022-11-15T07:17:56.412Z,40.67
2022-11-15T07:20:26.228Z,40.38
2022-11-15T07:23:01.867Z,40.22
2022-11-15T07:25:30.331Z,40.45
2022-11-15T07:27:59.066Z,40.34
2022-11-15T07:30:28.010Z,40.75
2022-11-15T07:32:56.936Z,41.43
2022-11-15T07:35:27.310Z,41.58
2022-11-15T07:37:57.472Z,41.70
2022-11-15T07:40:26.206Z,41.77
2022-11-15T07:42:54.665Z,41.73
2022-11-15T07:45:23.480Z,42.65
2022-11-15T07:47:52.086Z,41.85
2022-11-15T07:50:20.769Z,42.54
2022-11-15T07:52:57.545Z,42.36
2022-11-15T07:55:26.246Z,42.20
2022-11-15T07:57:54.870Z,42.19
2022-11-15T08:00:23.679Z,42.04
2022-11-15T08:02:52.218Z,41.98
2022-11-15T08:05:20.829Z,42.13
2022-11-15T08:07:52.736Z,41.93
2022-11-15T08:10:21.776Z,42.04
2022-11-15T08:12:50.486Z,41.91
2022-11-15T08:15:19.118Z,42.04
2022-11-15T08:17:47.676Z,41.82
2022-11-15T08:20:16.969Z,41.66
2022-11-15T08:22:45.485Z,41.47
2022-11-15T08:25:15.470Z,41.63
2022-11-15T08:27:44.987Z,41.65
2022-11-15T08:30:14.681Z,41.69
2022-11-15T08:32:43.254Z,41.47
2022-11-15T08:35:11.766Z,41.96
2022-11-15T08:37:40.348Z,41.76
2022-11-15T08:40:10.645Z,41.87
2022-11-15T08:42:40.509Z,41.74
2022-11-15T08:45:10.511Z,41.43
2022-11-15T08:47:39.039Z,41.94
2022-11-15T08:50:08.952Z,42.19
2022-11-15T08:52:37.451Z,42.37
2022-11-15T08:55:07.318Z,42.17
2022-11-15T08:57:35.845Z,42.35
2022-11-15T09:00:07.042Z,42.12
2022-11-15T09:02:35.519Z,41.92
2022-11-15T09:05:04.095Z,42.63
2022-11-15T09:07:32.964Z,42.31
2022-11-15T09:10:01.822Z,42.56
2022-11-15T09:12:31.298Z,42.27
2022-11-15T09:15:00.041Z,42.70
2022-11-15T09:17:32.944Z,42.67
2022-11-15T09:20:01.881Z,42.66
2022-11-15T09:22:31.179Z,43.89
2022-11-15T09:24:59.943Z,43.96
2022-11-15T09:27:30.084Z,44.04
2022-11-15T09:29:58.681Z,43.64
2022-11-15T09:32:37.815Z,43.68
2022-11-15T09:35:08.523Z,43.67
2022-11-15T09:37:39.862Z,43.94
2022-11-15T09:40:11.464Z,43.61
2022-11-15T09:43:00.117Z,43.79
2022-11-15T09:45:32.996Z,44.04
2022-11-15T09:48:30.599Z,43.73
2022-11-15T09:51:02.285Z,43.88
2022-11-15T09:54:13.562Z,44.02
2022-11-15T09:56:25.164Z,44.09
2022-11-15T09:59:00.040Z,43.99
2022-11-15T10:01:39.015Z,44.27
2022-11-15T10:04:11.819Z,45.09
2022-11-15T10:06:43.925Z,44.39
2022-11-15T10:09:22.524Z,44.23
2022-11-15T10:11:52.501Z,43.41
2022-11-15T10:14:22.457Z,43.83
2022-11-15T10:17:34.198Z,43.62
2022-11-15T10:20:13.298Z,44.29
2022-11-15T10:22:43.385Z,44.62
2022-11-15T10:25:23.746Z,44.79
2022-11-15T10:27:58.327Z,44.59
2022-11-15T10:30:35.864Z,44.85
2022-11-15T10:33:27.364Z,44.70
2022-11-15T10:36:19.273Z,44.63
2022-11-15T10:38:59.956Z,45.81
2022-11-15T10:41:35.783Z,45.19
2022-11-15T10:44:28.695Z,45.57
2022-11-15T10:47:23.850Z,45.56
2022-11-15T10:50:28.903Z,45.78
2022-11-15T10:52:58.883Z,45.42
2022-11-15T10:55:29.701Z,45.27
2022-11-15T10:58:06.355Z,45.74
2022-11-15T11:00:37.183Z,45.13
2022-11-15T11:03:08.203Z,45.91
2022-11-15T11:05:42.381Z,45.14
2022-11-15T11:08:25.023Z,44.89
2022-11-15T11:11:02.149Z,45.07
2022-11-15T11:13:33.826Z,45.25
2022-11-15T11:16:36.316Z,45.68
2022-11-15T11:19:18.763Z,44.66
2022-11-15T11:21:57.768Z,44.89
2022-11-15T11:24:33.066Z,45.21
2022-11-15T11:27:14.454Z,45.46
2022-11-15T11:30:08.811Z,45.28
2022-11-15T11:32:54.850Z,44.66
2022-11-15T11:35:28.407Z,44.22
2022-11-15T11:38:02.943Z,44.69
2022-11-15T11:40:39.345Z,44.39
2022-11-15T11:43:14.656Z,45.03
2022-11-15T11:46:03.861Z,45.47
2022-11-15T11:48:43.447Z,45.31
2022-11-15T11:51:18.748Z,45.32
2022-11-15T11:53:53.090Z,45.02
2022-11-15T11:56:27.639Z,44.79
2022-11-15T11:58:57.672Z,45.26
2022-11-15T12:01:30.920Z,45.48
2022-11-15T12:04:01.992Z,45.70
2022-11-15T12:06:34.352Z,45.07
2022-11-15T12:09:06.298Z,45.48
2022-11-15T12:11:41.123Z,45.54
2022-11-15T12:14:15.172Z,45.61
2022-11-15T12:16:44.263Z,45.34
2022-11-15T12:19:14.348Z,45.36
2022-11-15T12:21:47.156Z,45.23
2022-11-15T12:24:18.908Z,45.15
2022-11-15T12:26:53.165Z,45.08
2022-11-15T12:29:29.063Z,44.83
2022-11-15T12:32:01.044Z,45.09
2022-11-15T12:34:45.996Z,45.28
2022-11-15T12:37:56.198Z,45.15
2022-11-15T12:40:30.993Z,45.06
2022-11-15T12:43:31.621Z,44.95
2022-11-15T12:46:07.427Z,44.96
2022-11-15T12:49:00.544Z,45.50
2022-11-15T12:52:09.434Z,45.56
2022-11-15T12:55:02.950Z,45.46
2022-11-15T12:57:40.538Z,45.26
2022-11-15T13:00:41.141Z,45.18
2022-11-15T13:03:26.458Z,45.09
2022-11-15T13:06:05.065Z,44.69
2022-11-15T13:08:52.031Z,45.05
2022-11-15T13:12:00.754Z,44.94
2022-11-15T13:14:56.409Z,45.32
2022-11-15T13:17:33.802Z,44.60
2022-11-15T13:20:25.330Z,44.96
2022-11-15T13:23:00.372Z,44.79
2022-11-15T13:26:13.159Z,44.66
2022-11-15T13:28:46.260Z,44.65
2022-11-15T13:31:29.980Z,44.72
2022-11-15T13:34:03.092Z,44.52
2022-11-15T13:36:34.279Z,45.05
2022-11-15T13:39:04.788Z,44.80
2022-11-15T13:41:34.893Z,44.86
2022-11-15T13:44:04.773Z,45.27
2022-11-15T13:46:34.758Z,45.13
2022-11-15T13:49:05.859Z,45.08
2022-11-15T13:51:39.141Z,44.85
2022-11-15T13:54:17.158Z,44.86
2022-11-15T13:56:48.969Z,44.82
2022-11-15T13:59:25.978Z,44.79
2022-11-15T14:01:54.952Z,44.76
2022-11-15T14:04:26.325Z,44.62
2022-11-15T14:06:56.688Z,44.59
2022-11-15T14:09:37.851Z,44.67
2022-11-15T14:12:30.302Z,44.74
2022-11-15T14:14:59.258Z,44.89
2022-11-15T14:17:39.476Z,44.78
2022-11-15T14:20:32.984Z,45.07
2022-11-15T14:23:02.645Z,44.45
2022-11-15T14:25:33.016Z,44.76
2022-11-15T14:28:30.309Z,44.84
2022-11-15T14:31:00.258Z,44.42
2022-11-15T14:33:31.751Z,44.31
2022-11-15T14:36:06.416Z,44.48
2022-11-15T14:38:36.053Z,44.29
2022-11-15T14:41:04.646Z,44.54
2022-11-15T14:43:33.090Z,44.24
2022-11-15T14:46:01.641Z,44.55
2022-11-15T14:48:30.327Z,44.66
2022-11-15T14:51:00.854Z,44.79
2022-11-15T14:53:29.375Z,44.47
2022-11-15T14:55:57.885Z,44.66
2022-11-15T14:58:26.365Z,44.71
2022-11-15T15:00:54.876Z,45.03
2022-11-15T15:03:23.337Z,45.09
2022-11-15T15:05:51.772Z,44.49
2022-11-15T15:08:21.718Z,44.39
2022-11-15T15:10:50.540Z,44.31
2022-11-15T15:13:20.739Z,44.28
2022-11-15T15:15:49.647Z,44.47
2022-11-15T15:18:19.138Z,44.43
2022-11-15T15:20:55.808Z,44.07
2022-11-15T15:23:27.703Z,44.20
2022-11-15T15:25:56.170Z,44.67
2022-11-15T15:28:27.581Z,44.63
2022-11-15T15:30:58.606Z,44.38
2022-11-15T15:33:27.127Z,44.57
2022-11-15T15:35:55.566Z,44.62
2022-11-15T15:38:29.146Z,44.47
2022-11-15T15:40:57.837Z,44.56
2022-11-15T15:43:26.375Z,44.22
2022-11-15T15:45:54.798Z,44.48
2022-11-15T15:48:23.355Z,44.35
2022-11-15T15:50:52.134Z,44.22
2022-11-15T15:53:20.625Z,44.12
2022-11-15T15:55:50.869Z,44.18
2022-11-15T15:58:19.408Z,43.96
2022-11-15T16:00:47.950Z,43.92
2022-11-15T16:03:16.623Z,44.09
2022-11-15T16:05:45.108Z,43.95
2022-11-15T16:08:19.799Z,43.94
2022-11-15T16:10:48.448Z,43.84
2022-11-15T16:13:18.549Z,44.09
2022-11-15T16:15:54.443Z,43.78
2022-11-15T16:18:22.917Z,44.01
2022-11-15T16:20:53.167Z,43.85
2022-11-15T16:23:24.614Z,43.78
2022-11-15T16:25:54.183Z,43.72
2022-11-15T16:28:25.782Z,43.90
2022-11-15T16:31:02.640Z,44.08
2022-11-15T16:33:31.373Z,43.97
2022-11-15T16:36:00.171Z,43.86
2022-11-15T16:38:28.630Z,43.90
2022-11-15T16:40:58.257Z,43.77
2022-11-15T16:43:28.127Z,43.70
2022-11-15T16:45:56.576Z,43.67
2022-11-15T16:48:27.156Z,43.99
2022-11-15T16:50:57.362Z,44.59
2022-11-15T16:53:26.111Z,43.95
2022-11-15T16:55:54.814Z,44.76
2022-11-15T16:58:23.342Z,44.30
2022-11-15T17:00:54.480Z,44.29
2022-11-15T17:03:23.443Z,44.08
2022-11-15T17:05:52.186Z,44.13
2022-11-15T17:08:29.471Z,43.89
2022-11-15T17:10:57.964Z,43.85
2022-11-15T17:13:45.313Z,44.37
2022-11-15T17:16:16.499Z,44.46
2022-11-15T17:18:46.168Z,44.69
2022-11-15T17:21:33.920Z,44.56
2022-11-15T17:24:02.455Z,44.69
2022-11-15T17:26:33.987Z,44.81
2022-11-15T17:29:07.836Z,44.76
2022-11-15T17:31:38.042Z,45.12
2022-11-15T17:34:07.289Z,45.01
2022-11-15T17:36:36.022Z,45.06
2022-11-15T17:39:04.769Z,44.84
2022-11-15T17:41:33.237Z,44.63
2022-11-15T17:44:20.182Z,44.65
2022-11-15T17:46:50.049Z,44.61
2022-11-15T17:49:18.492Z,44.93
2022-11-15T17:51:50.353Z,44.99
2022-11-15T17:54:18.904Z,45.51
2022-11-15T17:57:05.618Z,45.22
2022-11-15T17:59:34.061Z,45.31
2022-11-15T18:02:03.941Z,45.04
2022-11-15T18:04:32.380Z,45.65
2022-11-15T18:07:00.900Z,45.45
2022-11-15T18:09:29.905Z,45.10
2022-11-15T18:11:58.812Z,45.39
2022-11-15T18:14:46.090Z,45.89
2022-11-15T18:17:16.005Z,45.99
2022-11-15T18:19:44.478Z,45.87
2022-11-15T18:22:12.996Z,46.41
2022-11-15T18:24:43.125Z,45.92
2022-11-15T18:27:11.612Z,45.88
2022-11-15T18:29:40.209Z,46.00
2022-11-15T18:32:28.385Z,45.67
2022-11-15T18:34:57.030Z,45.62
2022-11-15T18:37:25.553Z,45.71
2022-11-15T18:39:54.282Z,45.55
2022-11-15T18:42:22.832Z,45.80
2022-11-15T18:44:51.525Z,45.87
2022-11-15T18:47:20.042Z,45.74
2022-11-15T18:49:50.760Z,45.65
2022-11-15T18:52:38.020Z,45.43
2022-11-15T18:55:07.607Z,45.68
2022-11-15T18:57:54.469Z,45.39
2022-11-15T19:00:41.459Z,46.55
2022-11-15T19:03:10.084Z,46.34
2022-11-15T19:05:40.047Z,47.20
2022-11-15T19:08:08.520Z,47.13
2022-11-15T19:10:37.068Z,46.57
2022-11-15T19:13:08.255Z,46.51
2022-11-15T19:15:36.913Z,46.13
2022-11-15T19:18:23.783Z,45.92
2022-11-15T19:20:53.952Z,46.41
2022-11-15T19:23:22.674Z,46.61
2022-11-15T19:25:58.238Z,45.88
2022-11-15T19:28:45.500Z,45.72
2022-11-15T19:31:15.132Z,45.46
2022-11-15T19:33:44.814Z,45.50
2022-11-15T19:36:17.335Z,45.34
2022-11-15T19:38:46.393Z,45.34
2022-11-15T19:41:19.266Z,45.23
2022-11-15T19:43:48.976Z,46.03
2022-11-15T19:46:17.843Z,45.70
2022-11-15T19:49:05.271Z,45.68
2022-11-15T19:51:35.148Z,45.32
2022-11-15T19:54:06.818Z,45.71
2022-11-15T19:56:35.828Z,45.06
2022-11-15T19:59:05.031Z,44.84
2022-11-15T20:01:36.289Z,44.98
2022-11-15T20:04:05.277Z,45.17
2022-11-15T20:06:37.303Z,44.70
2022-11-15T20:09:05.902Z,44.82
2022-11-15T20:11:38.042Z,44.84
2022-11-15T20:14:08.996Z,45.02
2022-11-15T20:16:56.142Z,44.23
2022-11-15T20:19:24.709Z,43.49
2022-11-15T20:21:54.604Z,43.55
2022-11-15T20:24:23.732Z,43.64
2022-11-15T20:26:52.218Z,45.21
2022-11-15T20:29:20.663Z,45.62
2022-11-15T20:31:49.224Z,46.04
2022-11-15T20:34:17.738Z,45.87
2022-11-15T20:36:46.348Z,46.52
2022-11-15T20:39:16.151Z,46.48
2022-11-15T20:41:44.614Z,47.43
2022-11-15T20:44:13.120Z,46.92
2022-11-15T20:46:41.705Z,46.69
2022-11-15T20:49:10.240Z,46.78
2022-11-15T20:51:38.766Z,47.53
2022-11-15T20:54:07.577Z,47.69
2022-11-15T20:56:37.385Z,46.99
2022-11-15T20:59:05.906Z,47.23
2022-11-15T21:01:34.472Z,47.26
2022-11-15T21:04:03.299Z,47.22
2022-11-15T21:06:32.046Z,46.93
2022-11-15T21:09:18.385Z,46.95
2022-11-15T21:12:05.929Z,46.67
2022-11-15T21:14:34.464Z,46.97
2022-11-15T21:17:03.066Z,46.64
2022-11-15T21:19:36.676Z,46.78
2022-11-15T21:22:06.998Z,46.91
2022-11-15T21:24:37.123Z,46.51
2022-11-15T21:27:06.963Z,46.60
2022-11-15T21:29:38.646Z,46.25
2022-11-15T21:32:07.533Z,46.22
2022-11-15T21:34:36.058Z,46.43
2022-11-15T21:37:04.738Z,46.38
2022-11-15T21:39:33.210Z,46.39
2022-11-15T21:42:01.653Z,46.49
2022-11-15T21:44:31.762Z,46.39
2022-11-15T21:47:00.330Z,46.14
2022-11-15T21:49:28.812Z,46.27
2022-11-15T21:51:57.297Z,46.25
2022-11-15T21:54:25.778Z,46.21
2022-11-15T21:56:54.271Z,46.20
2022-11-15T21:59:22.888Z,46.48
2022-11-15T22:02:10.535Z,46.33
2022-11-15T22:04:39.027Z,46.59
2022-11-15T22:07:07.582Z,46.69
2022-11-15T22:09:36.445Z,46.53
2022-11-15T22:12:05.248Z,46.41
2022-11-15T22:14:33.722Z,46.21
2022-11-15T22:17:03.785Z,46.46
2022-11-15T22:19:32.359Z,46.93
2022-11-15T22:22:00.884Z,46.60
2022-11-15T22:24:29.876Z,46.54
2022-11-15T22:26:58.348Z,46.23
2022-11-15T22:29:27.094Z,46.24
2022-11-15T22:31:55.629Z,46.10
2022-11-15T22:34:25.674Z,46.15
2022-11-15T22:37:19.024Z,46.10
2022-11-15T22:39:42.583Z,46.11
2022-11-15T22:42:11.120Z,46.06
2022-11-15T22:44:39.638Z,45.94
2022-11-15T22:47:08.205Z,45.91
2022-11-15T22:49:38.089Z,46.05
2022-11-15T22:52:06.949Z,45.86
2022-11-15T22:54:35.438Z,45.74
2022-11-15T22:57:04.254Z,45.76
2022-11-15T22:59:32.806Z,45.73
2022-11-15T23:02:01.272Z,45.81
2022-11-15T23:04:34.671Z,45.81
2022-11-15T23:07:04.770Z,45.51
2022-11-15T23:09:33.455Z,46.01
2022-11-15T23:12:21.413Z,45.49
2022-11-15T23:14:49.888Z,45.64
2022-11-15T23:17:18.432Z,45.32
2022-11-15T23:19:47.140Z,45.40
2022-11-15T23:22:34.728Z,45.38
2022-11-15T23:25:03.265Z,45.62
2022-11-15T23:27:31.803Z,45.32
2022-11-15T23:30:17.845Z,45.35
2022-11-15T23:33:03.735Z,45.59
2022-11-15T23:35:32.264Z,45.25
2022-11-15T23:38:02.206Z,45.26
2022-11-15T23:40:30.743Z,45.31
2022-11-15T23:42:59.722Z,45.33
2022-11-15T23:45:29.599Z,45.19
2022-11-15T23:48:01.416Z,45.14
2022-11-15T23:50:32.745Z,45.37
2022-11-15T23:53:02.683Z,45.29
2022-11-15T23:55:31.279Z,45.14
2022-11-15T23:58:00.635Z,45.11
